sensor_id;sensor_type;location;lat;lon;timestamp;P1;durP1;ratioP1;P2;durP2;ratioP2
56381;SDS011;50261;51.150;4.470;2022-07-29T00:00:38;3.85;;;1.98;;
56381;SDS011;50261;51.150;4.470;2022-07-29T00:03:04;3.60;;;1.50;;
56381;SDS011;50261;51.150;4.470;2022-07-29T00:05:29;3.22;;;1.73;;
56381;SDS011;50261;51.150;4.470;2022-07-29T00:07:55;6.07;;;1.65;;
56381;SDS011;50261;51.150;4.470;2022-07-29T00:10:21;3.00;;;1.70;;
56381;SDS011;50261;51.150;4.470;2022-07-29T00:12:46;5.43;;;1.70;;
56381;SDS011;50261;51.150;4.470;2022-07-29T00:15:12;3.47;;;1.70;;
56381;SDS011;50261;51.150;4.470;2022-07-29T00:17:38;3.55;;;2.00;;
56381;SDS011;50261;51.150;4.470;2022-07-29T00:20:04;6.32;;;2.03;;
56381;SDS011;50261;51.150;4.470;2022-07-29T00:22:30;2.35;;;1.60;;
56381;SDS011;50261;51.150;4.470;2022-07-29T00:24:56;5.97;;;1.83;;
56381;SDS011;50261;51.150;4.470;2022-07-29T00:27:22;5.57;;;1.92;;
56381;SDS011;50261;51.150;4.470;2022-07-29T00:29:47;3.28;;;1.58;;
56381;SDS011;50261;51.150;4.470;2022-07-29T00:32:13;7.80;;;2.10;;
56381;SDS011;50261;51.150;4.470;2022-07-29T00:34:39;6.10;;;1.77;;
56381;SDS011;50261;51.150;4.470;2022-07-29T00:39:48;4.20;;;1.88;;
56381;SDS011;50261;51.150;4.470;2022-07-29T00:42:14;4.72;;;2.00;;
56381;SDS011;50261;51.150;4.470;2022-07-29T00:44:41;2.88;;;1.70;;
56381;SDS011;50261;51.150;4.470;2022-07-29T00:47:07;8.35;;;2.25;;
56381;SDS011;50261;51.150;4.470;2022-07-29T00:49:33;6.18;;;2.50;;
56381;SDS011;50261;51.150;4.470;2022-07-29T00:52:00;4.18;;;1.90;;
56381;SDS011;50261;51.150;4.470;2022-07-29T00:54:26;6.75;;;2.00;;
56381;SDS011;50261;51.150;4.470;2022-07-29T00:56:52;5.85;;;1.80;;
56381;SDS011;50261;51.150;4.470;2022-07-29T00:59:18;8.18;;;1.90;;
56381;SDS011;50261;51.150;4.470;2022-07-29T01:01:44;5.38;;;2.00;;
56381;SDS011;50261;51.150;4.470;2022-07-29T01:04:10;2.92;;;1.88;;
56381;SDS011;50261;51.150;4.470;2022-07-29T01:06:36;3.65;;;1.50;;
56381;SDS011;50261;51.150;4.470;2022-07-29T01:09:02;5.15;;;1.65;;
56381;SDS011;50261;51.150;4.470;2022-07-29T01:11:28;6.05;;;1.80;;
56381;SDS011;50261;51.150;4.470;2022-07-29T01:13:55;9.00;;;2.30;;
56381;SDS011;50261;51.150;4.470;2022-07-29T01:16:23;4.13;;;1.80;;
56381;SDS011;50261;51.150;4.470;2022-07-29T01:18:51;5.35;;;2.13;;
56381;SDS011;50261;51.150;4.470;2022-07-29T01:23:52;5.30;;;1.95;;
56381;SDS011;50261;51.150;4.470;2022-07-29T01:31:28;3.97;;;1.83;;
56381;SDS011;50261;51.150;4.470;2022-07-29T01:33:57;6.38;;;1.90;;
56381;SDS011;50261;51.150;4.470;2022-07-29T01:36:25;4.22;;;1.90;;
56381;SDS011;50261;51.150;4.470;2022-07-29T01:39:02;4.63;;;1.80;;
56381;SDS011;50261;51.150;4.470;2022-07-29T01:41:30;2.92;;;1.73;;
56381;SDS011;50261;51.150;4.470;2022-07-29T01:44:01;4.55;;;1.65;;
56381;SDS011;50261;51.150;4.470;2022-07-29T01:46:30;3.17;;;1.60;;
56381;SDS011;50261;51.150;4.470;2022-07-29T01:48:57;3.60;;;2.00;;
56381;SDS011;50261;51.150;4.470;2022-07-29T01:51:27;2.78;;;1.70;;
56381;SDS011;50261;51.150;4.470;2022-07-29T01:54:08;6.82;;;2.05;;
56381;SDS011;50261;51.150;4.470;2022-07-29T01:56:35;2.70;;;1.63;;
56381;SDS011;50261;51.150;4.470;2022-07-29T01:59:01;5.18;;;1.80;;
56381;SDS011;50261;51.150;4.470;2022-07-29T02:01:28;3.00;;;2.00;;
56381;SDS011;50261;51.150;4.470;2022-07-29T02:03:55;4.65;;;1.80;;
56381;SDS011;50261;51.150;4.470;2022-07-29T02:06:22;4.65;;;2.10;;
56381;SDS011;50261;51.150;4.470;2022-07-29T02:08:48;8.82;;;1.80;;
56381;SDS011;50261;51.150;4.470;2022-07-29T02:11:15;7.32;;;1.70;;
56381;SDS011;50261;51.150;4.470;2022-07-29T02:13:41;6.03;;;1.88;;
56381;SDS011;50261;51.150;4.470;2022-07-29T02:16:07;3.58;;;1.73;;
56381;SDS011;50261;51.150;4.470;2022-07-29T02:18:33;5.05;;;1.80;;
56381;SDS011;50261;51.150;4.470;2022-07-29T02:21:02;5.05;;;1.67;;
56381;SDS011;50261;51.150;4.470;2022-07-29T02:23:28;3.58;;;1.92;;
56381;SDS011;50261;51.150;4.470;2022-07-29T02:25:56;4.40;;;1.95;;
56381;SDS011;50261;51.150;4.470;2022-07-29T02:28:22;4.53;;;2.00;;
56381;SDS011;50261;51.150;4.470;2022-07-29T02:30:48;2.92;;;1.45;;
56381;SDS011;50261;51.150;4.470;2022-07-29T02:33:15;3.97;;;1.50;;
56381;SDS011;50261;51.150;4.470;2022-07-29T02:35:44;4.25;;;1.80;;
56381;SDS011;50261;51.150;4.470;2022-07-29T02:38:12;5.13;;;2.25;;
56381;SDS011;50261;51.150;4.470;2022-07-29T02:40:57;3.97;;;1.80;;
56381;SDS011;50261;51.150;4.470;2022-07-29T02:43:24;5.15;;;1.77;;
56381;SDS011;50261;51.150;4.470;2022-07-29T02:45:51;2.92;;;1.70;;
56381;SDS011;50261;51.150;4.470;2022-07-29T02:48:18;4.40;;;1.90;;
56381;SDS011;50261;51.150;4.470;2022-07-29T02:50:50;6.28;;;2.15;;
56381;SDS011;50261;51.150;4.470;2022-07-29T02:53:22;4.50;;;1.70;;
56381;SDS011;50261;51.150;4.470;2022-07-29T02:55:51;4.03;;;1.77;;
56381;SDS011;50261;51.150;4.470;2022-07-29T03:00:46;5.40;;;2.30;;
56381;SDS011;50261;51.150;4.470;2022-07-29T03:03:15;5.45;;;1.80;;
56381;SDS011;50261;51.150;4.470;2022-07-29T03:05:41;5.55;;;1.90;;
56381;SDS011;50261;51.150;4.470;2022-07-29T03:08:08;3.58;;;1.95;;
56381;SDS011;50261;51.150;4.470;2022-07-29T03:10:34;2.50;;;1.50;;
56381;SDS011;50261;51.150;4.470;2022-07-29T03:13:01;4.85;;;1.60;;
56381;SDS011;50261;51.150;4.470;2022-07-29T03:15:27;4.20;;;1.58;;
56381;SDS011;50261;51.150;4.470;2022-07-29T03:17:53;2.63;;;1.50;;
56381;SDS011;50261;51.150;4.470;2022-07-29T03:20:20;3.00;;;1.40;;
56381;SDS011;50261;51.150;4.470;2022-07-29T03:22:46;4.40;;;1.80;;
56381;SDS011;50261;51.150;4.470;2022-07-29T03:25:13;4.18;;;1.92;;
56381;SDS011;50261;51.150;4.470;2022-07-29T03:27:39;6.13;;;2.00;;
56381;SDS011;50261;51.150;4.470;2022-07-29T03:30:06;4.30;;;2.08;;
56381;SDS011;50261;51.150;4.470;2022-07-29T03:32:32;5.93;;;2.30;;
56381;SDS011;50261;51.150;4.470;2022-07-29T03:34:58;2.60;;;1.77;;
56381;SDS011;50261;51.150;4.470;2022-07-29T03:37:23;2.30;;;1.50;;
56381;SDS011;50261;51.150;4.470;2022-07-29T03:39:49;6.82;;;1.90;;
56381;SDS011;50261;51.150;4.470;2022-07-29T03:42:16;4.25;;;1.98;;
56381;SDS011;50261;51.150;4.470;2022-07-29T03:44:44;4.53;;;1.80;;
56381;SDS011;50261;51.150;4.470;2022-07-29T03:47:10;3.83;;;1.80;;
56381;SDS011;50261;51.150;4.470;2022-07-29T03:49:38;6.10;;;1.75;;
56381;SDS011;50261;51.150;4.470;2022-07-29T03:52:05;4.60;;;1.95;;
56381;SDS011;50261;51.150;4.470;2022-07-29T03:54:31;3.72;;;1.60;;
56381;SDS011;50261;51.150;4.470;2022-07-29T03:56:59;6.03;;;1.90;;
56381;SDS011;50261;51.150;4.470;2022-07-29T03:59:25;6.82;;;2.05;;
56381;SDS011;50261;51.150;4.470;2022-07-29T04:01:51;2.60;;;1.45;;
56381;SDS011;50261;51.150;4.470;2022-07-29T04:04:17;3.92;;;1.98;;
56381;SDS011;50261;51.150;4.470;2022-07-29T04:06:44;7.47;;;1.90;;
56381;SDS011;50261;51.150;4.470;2022-07-29T04:09:10;3.95;;;1.50;;
56381;SDS011;50261;51.150;4.470;2022-07-29T04:11:36;3.70;;;1.48;;
56381;SDS011;50261;51.150;4.470;2022-07-29T04:14:03;3.47;;;1.70;;
56381;SDS011;50261;51.150;4.470;2022-07-29T04:16:29;5.57;;;1.98;;
56381;SDS011;50261;51.150;4.470;2022-07-29T04:18:55;3.03;;;1.90;;
56381;SDS011;50261;51.150;4.470;2022-07-29T04:21:21;3.88;;;2.05;;
56381;SDS011;50261;51.150;4.470;2022-07-29T04:23:46;3.97;;;1.48;;
56381;SDS011;50261;51.150;4.470;2022-07-29T04:26:18;3.50;;;1.73;;
56381;SDS011;50261;51.150;4.470;2022-07-29T04:28:44;6.25;;;2.00;;
56381;SDS011;50261;51.150;4.470;2022-07-29T04:31:10;4.65;;;1.80;;
56381;SDS011;50261;51.150;4.470;2022-07-29T04:33:36;5.15;;;1.60;;
56381;SDS011;50261;51.150;4.470;2022-07-29T04:36:01;2.78;;;1.40;;
56381;SDS011;50261;51.150;4.470;2022-07-29T04:38:27;3.25;;;1.65;;
56381;SDS011;50261;51.150;4.470;2022-07-29T04:40:53;6.30;;;2.08;;
56381;SDS011;50261;51.150;4.470;2022-07-29T04:43:18;8.52;;;2.10;;
56381;SDS011;50261;51.150;4.470;2022-07-29T04:45:44;2.83;;;1.70;;
56381;SDS011;50261;51.150;4.470;2022-07-29T04:48:10;3.92;;;1.83;;
56381;SDS011;50261;51.150;4.470;2022-07-29T04:50:39;5.03;;;1.67;;
56381;SDS011;50261;51.150;4.470;2022-07-29T04:53:05;3.85;;;1.55;;
56381;SDS011;50261;51.150;4.470;2022-07-29T04:55:31;7.15;;;1.70;;
56381;SDS011;50261;51.150;4.470;2022-07-29T04:57:57;3.08;;;1.80;;
56381;SDS011;50261;51.150;4.470;2022-07-29T05:00:22;4.97;;;1.75;;
56381;SDS011;50261;51.150;4.470;2022-07-29T05:02:48;3.85;;;1.63;;
56381;SDS011;50261;51.150;4.470;2022-07-29T05:05:14;6.43;;;1.70;;
56381;SDS011;50261;51.150;4.470;2022-07-29T05:07:39;5.43;;;1.90;;
56381;SDS011;50261;51.150;4.470;2022-07-29T05:10:05;5.25;;;2.05;;
56381;SDS011;50261;51.150;4.470;2022-07-29T05:12:31;8.18;;;2.00;;
56381;SDS011;50261;51.150;4.470;2022-07-29T05:14:57;3.65;;;2.10;;
56381;SDS011;50261;51.150;4.470;2022-07-29T05:17:22;6.72;;;2.13;;
56381;SDS011;50261;51.150;4.470;2022-07-29T05:19:48;5.50;;;1.70;;
56381;SDS011;50261;51.150;4.470;2022-07-29T05:22:17;5.30;;;2.03;;
56381;SDS011;50261;51.150;4.470;2022-07-29T05:24:43;5.25;;;2.30;;
56381;SDS011;50261;51.150;4.470;2022-07-29T05:27:09;6.25;;;1.95;;
56381;SDS011;50261;51.150;4.470;2022-07-29T05:29:35;4.65;;;2.05;;
56381;SDS011;50261;51.150;4.470;2022-07-29T05:32:01;4.28;;;1.90;;
56381;SDS011;50261;51.150;4.470;2022-07-29T05:34:26;4.93;;;2.20;;
56381;SDS011;50261;51.150;4.470;2022-07-29T05:36:52;4.78;;;2.00;;
56381;SDS011;50261;51.150;4.470;2022-07-29T05:39:18;4.20;;;1.73;;
56381;SDS011;50261;51.150;4.470;2022-07-29T05:41:44;2.55;;;1.88;;
56381;SDS011;50261;51.150;4.470;2022-07-29T05:44:09;6.13;;;2.20;;
56381;SDS011;50261;51.150;4.470;2022-07-29T05:46:36;3.45;;;1.80;;
56381;SDS011;50261;51.150;4.470;2022-07-29T05:49:02;4.38;;;2.00;;
56381;SDS011;50261;51.150;4.470;2022-07-29T05:51:28;4.10;;;2.08;;
56381;SDS011;50261;51.150;4.470;2022-07-29T05:53:55;4.57;;;1.98;;
56381;SDS011;50261;51.150;4.470;2022-07-29T05:56:20;3.42;;;1.92;;
56381;SDS011;50261;51.150;4.470;2022-07-29T05:58:46;3.28;;;2.22;;
56381;SDS011;50261;51.150;4.470;2022-07-29T06:01:11;4.00;;;2.10;;
56381;SDS011;50261;51.150;4.470;2022-07-29T06:03:37;4.90;;;1.98;;
56381;SDS011;50261;51.150;4.470;2022-07-29T06:06:03;3.40;;;2.40;;
56381;SDS011;50261;51.150;4.470;2022-07-29T06:08:29;5.10;;;2.10;;
56381;SDS011;50261;51.150;4.470;2022-07-29T06:10:55;8.55;;;2.63;;
56381;SDS011;50261;51.150;4.470;2022-07-29T06:13:20;5.28;;;2.08;;
56381;SDS011;50261;51.150;4.470;2022-07-29T06:15:46;2.92;;;2.17;;
56381;SDS011;50261;51.150;4.470;2022-07-29T06:18:12;2.97;;;2.13;;
56381;SDS011;50261;51.150;4.470;2022-07-29T06:20:38;8.90;;;2.20;;
56381;SDS011;50261;51.150;4.470;2022-07-29T06:23:03;4.65;;;2.50;;
56381;SDS011;50261;51.150;4.470;2022-07-29T06:25:29;4.30;;;2.20;;
56381;SDS011;50261;51.150;4.470;2022-07-29T06:27:55;10.18;;;2.63;;
56381;SDS011;50261;51.150;4.470;2022-07-29T06:30:20;3.78;;;2.42;;
56381;SDS011;50261;51.150;4.470;2022-07-29T06:32:46;6.97;;;2.58;;
56381;SDS011;50261;51.150;4.470;2022-07-29T06:35:12;6.93;;;2.65;;
56381;SDS011;50261;51.150;4.470;2022-07-29T06:37:37;6.65;;;2.60;;
56381;SDS011;50261;51.150;4.470;2022-07-29T06:40:03;5.53;;;2.50;;
56381;SDS011;50261;51.150;4.470;2022-07-29T06:45:12;4.60;;;2.13;;
56381;SDS011;50261;51.150;4.470;2022-07-29T06:47:38;4.78;;;2.60;;
56381;SDS011;50261;51.150;4.470;2022-07-29T06:50:04;3.88;;;2.58;;
56381;SDS011;50261;51.150;4.470;2022-07-29T06:52:30;5.03;;;2.47;;
56381;SDS011;50261;51.150;4.470;2022-07-29T06:54:55;7.95;;;2.28;;
56381;SDS011;50261;51.150;4.470;2022-07-29T06:57:21;7.97;;;2.42;;
56381;SDS011;50261;51.150;4.470;2022-07-29T06:59:46;4.13;;;2.45;;
56381;SDS011;50261;51.150;4.470;2022-07-29T07:02:12;7.45;;;2.50;;
56381;SDS011;50261;51.150;4.470;2022-07-29T07:04:37;7.22;;;3.00;;
56381;SDS011;50261;51.150;4.470;2022-07-29T07:07:03;3.83;;;2.78;;
56381;SDS011;50261;51.150;4.470;2022-07-29T07:09:28;5.85;;;2.55;;
56381;SDS011;50261;51.150;4.470;2022-07-29T07:11:54;3.90;;;2.63;;
56381;SDS011;50261;51.150;4.470;2022-07-29T07:14:19;7.90;;;2.72;;
56381;SDS011;50261;51.150;4.470;2022-07-29T07:16:45;3.58;;;2.50;;
56381;SDS011;50261;51.150;4.470;2022-07-29T07:19:10;5.50;;;2.80;;
56381;SDS011;50261;51.150;4.470;2022-07-29T07:21:35;10.93;;;3.17;;
56381;SDS011;50261;51.150;4.470;2022-07-29T07:24:01;8.07;;;2.80;;
56381;SDS011;50261;51.150;4.470;2022-07-29T07:26:26;8.27;;;2.80;;
56381;SDS011;50261;51.150;4.470;2022-07-29T07:28:52;6.38;;;3.15;;
56381;SDS011;50261;51.150;4.470;2022-07-29T07:31:17;5.22;;;2.90;;
56381;SDS011;50261;51.150;4.470;2022-07-29T07:33:43;5.15;;;3.03;;
56381;SDS011;50261;51.150;4.470;2022-07-29T07:36:08;4.85;;;3.10;;
56381;SDS011;50261;51.150;4.470;2022-07-29T07:38:34;4.35;;;2.88;;
56381;SDS011;50261;51.150;4.470;2022-07-29T07:40:59;5.70;;;2.80;;
56381;SDS011;50261;51.150;4.470;2022-07-29T07:43:25;5.85;;;2.88;;
56381;SDS011;50261;51.150;4.470;2022-07-29T07:45:50;4.10;;;2.67;;
56381;SDS011;50261;51.150;4.470;2022-07-29T07:48:16;4.88;;;2.90;;
56381;SDS011;50261;51.150;4.470;2022-07-29T07:50:41;6.90;;;3.33;;
56381;SDS011;50261;51.150;4.470;2022-07-29T07:53:07;7.07;;;3.10;;
56381;SDS011;50261;51.150;4.470;2022-07-29T07:55:32;4.53;;;2.65;;
56381;SDS011;50261;51.150;4.470;2022-07-29T07:57:57;5.82;;;2.72;;
56381;SDS011;50261;51.150;4.470;2022-07-29T08:00:23;6.82;;;2.55;;
56381;SDS011;50261;51.150;4.470;2022-07-29T08:02:48;4.30;;;2.30;;
56381;SDS011;50261;51.150;4.470;2022-07-29T08:05:15;5.45;;;2.67;;
56381;SDS011;50261;51.150;4.470;2022-07-29T08:07:44;5.65;;;2.33;;
56381;SDS011;50261;51.150;4.470;2022-07-29T08:10:10;4.95;;;2.28;;
56381;SDS011;50261;51.150;4.470;2022-07-29T08:12:36;6.45;;;2.80;;
56381;SDS011;50261;51.150;4.470;2022-07-29T08:15:01;3.97;;;2.38;;
56381;SDS011;50261;51.150;4.470;2022-07-29T08:17:27;4.38;;;2.42;;
56381;SDS011;50261;51.150;4.470;2022-07-29T08:19:53;6.28;;;2.50;;
56381;SDS011;50261;51.150;4.470;2022-07-29T08:22:19;6.93;;;2.35;;
56381;SDS011;50261;51.150;4.470;2022-07-29T08:24:44;4.78;;;2.42;;
56381;SDS011;50261;51.150;4.470;2022-07-29T08:27:17;4.07;;;2.28;;
56381;SDS011;50261;51.150;4.470;2022-07-29T08:29:43;7.85;;;2.15;;
56381;SDS011;50261;51.150;4.470;2022-07-29T08:32:08;3.88;;;2.42;;
56381;SDS011;50261;51.150;4.470;2022-07-29T08:34:33;4.13;;;2.25;;
56381;SDS011;50261;51.150;4.470;2022-07-29T08:36:59;4.50;;;1.92;;
56381;SDS011;50261;51.150;4.470;2022-07-29T08:39:24;4.03;;;2.40;;
56381;SDS011;50261;51.150;4.470;2022-07-29T08:41:50;6.90;;;2.35;;
56381;SDS011;50261;51.150;4.470;2022-07-29T08:44:19;3.88;;;2.15;;
56381;SDS011;50261;51.150;4.470;2022-07-29T08:46:46;7.07;;;1.95;;
56381;SDS011;50261;51.150;4.470;2022-07-29T08:49:12;4.57;;;1.90;;
56381;SDS011;50261;51.150;4.470;2022-07-29T08:51:39;3.50;;;1.80;;
56381;SDS011;50261;51.150;4.470;2022-07-29T08:54:04;5.40;;;1.95;;
56381;SDS011;50261;51.150;4.470;2022-07-29T08:56:30;6.03;;;1.60;;
56381;SDS011;50261;51.150;4.470;2022-07-29T08:58:56;3.63;;;1.80;;
56381;SDS011;50261;51.150;4.470;2022-07-29T09:01:23;5.43;;;1.92;;
56381;SDS011;50261;51.150;4.470;2022-07-29T09:03:49;6.20;;;1.80;;
56381;SDS011;50261;51.150;4.470;2022-07-29T09:06:17;6.03;;;1.98;;
56381;SDS011;50261;51.150;4.470;2022-07-29T09:08:42;4.65;;;1.75;;
56381;SDS011;50261;51.150;4.470;2022-07-29T09:11:08;4.97;;;1.60;;
56381;SDS011;50261;51.150;4.470;2022-07-29T09:13:36;4.07;;;1.60;;
56381;SDS011;50261;51.150;4.470;2022-07-29T09:16:01;6.53;;;2.10;;
56381;SDS011;50261;51.150;4.470;2022-07-29T09:18:33;4.88;;;1.60;;
56381;SDS011;50261;51.150;4.470;2022-07-29T09:21:00;3.60;;;1.60;;
56381;SDS011;50261;51.150;4.470;2022-07-29T09:24:03;4.88;;;1.75;;
56381;SDS011;50261;51.150;4.470;2022-07-29T09:26:30;6.63;;;1.88;;
56381;SDS011;50261;51.150;4.470;2022-07-29T09:28:56;4.05;;;1.50;;
56381;SDS011;50261;51.150;4.470;2022-07-29T09:31:44;3.97;;;1.80;;
56381;SDS011;50261;51.150;4.470;2022-07-29T09:34:08;6.78;;;1.70;;
56381;SDS011;50261;51.150;4.470;2022-07-29T09:36:52;5.70;;;1.60;;
56381;SDS011;50261;51.150;4.470;2022-07-29T09:42:02;3.70;;;1.20;;
56381;SDS011;50261;51.150;4.470;2022-07-29T09:44:47;5.28;;;1.48;;
56381;SDS011;50261;51.150;4.470;2022-07-29T09:47:14;4.28;;;1.33;;
56381;SDS011;50261;51.150;4.470;2022-07-29T09:49:50;5.95;;;1.92;;
56381;SDS011;50261;51.150;4.470;2022-07-29T09:52:16;4.25;;;1.70;;
56381;SDS011;50261;51.150;4.470;2022-07-29T09:54:42;6.75;;;1.27;;
56381;SDS011;50261;51.150;4.470;2022-07-29T09:57:08;5.85;;;1.38;;
56381;SDS011;50261;51.150;4.470;2022-07-29T09:59:37;14.23;;;2.38;;
56381;SDS011;50261;51.150;4.470;2022-07-29T10:02:11;5.97;;;1.55;;
56381;SDS011;50261;51.150;4.470;2022-07-29T10:04:41;3.90;;;1.17;;
56381;SDS011;50261;51.150;4.470;2022-07-29T10:07:07;3.42;;;1.40;;
56381;SDS011;50261;51.150;4.470;2022-07-29T10:09:33;5.07;;;1.83;;
56381;SDS011;50261;51.150;4.470;2022-07-29T10:12:17;3.25;;;1.42;;
56381;SDS011;50261;51.150;4.470;2022-07-29T10:14:42;3.83;;;1.52;;
56381;SDS011;50261;51.150;4.470;2022-07-29T10:17:08;7.00;;;1.73;;
56381;SDS011;50261;51.150;4.470;2022-07-29T10:19:34;4.50;;;1.30;;
56381;SDS011;50261;51.150;4.470;2022-07-29T10:22:01;6.70;;;1.30;;
56381;SDS011;50261;51.150;4.470;2022-07-29T10:24:28;3.53;;;1.45;;
56381;SDS011;50261;51.150;4.470;2022-07-29T10:26:58;4.13;;;1.95;;
56381;SDS011;50261;51.150;4.470;2022-07-29T10:29:24;4.30;;;1.38;;
56381;SDS011;50261;51.150;4.470;2022-07-29T10:32:00;5.03;;;1.73;;
56381;SDS011;50261;51.150;4.470;2022-07-29T10:42:56;5.15;;;1.40;;
56381;SDS011;50261;51.150;4.470;2022-07-29T10:45:28;3.28;;;1.60;;
56381;SDS011;50261;51.150;4.470;2022-07-29T10:48:04;5.20;;;1.40;;
56381;SDS011;50261;51.150;4.470;2022-07-29T10:55:40;4.53;;;1.33;;
56381;SDS011;50261;51.150;4.470;2022-07-29T10:58:10;5.10;;;1.45;;
56381;SDS011;50261;51.150;4.470;2022-07-29T11:00:36;3.63;;;1.30;;
56381;SDS011;50261;51.150;4.470;2022-07-29T11:03:02;3.95;;;1.52;;
56381;SDS011;50261;51.150;4.470;2022-07-29T11:05:27;3.08;;;1.52;;
56381;SDS011;50261;51.150;4.470;2022-07-29T11:10:37;3.80;;;1.60;;
56381;SDS011;50261;51.150;4.470;2022-07-29T11:13:03;5.05;;;1.63;;
56381;SDS011;50261;51.150;4.470;2022-07-29T11:15:28;6.38;;;2.40;;
56381;SDS011;50261;51.150;4.470;2022-07-29T11:23:20;6.88;;;2.00;;
56381;SDS011;50261;51.150;4.470;2022-07-29T11:25:46;3.47;;;1.80;;
56381;SDS011;50261;51.150;4.470;2022-07-29T11:28:31;5.80;;;1.90;;
56381;SDS011;50261;51.150;4.470;2022-07-29T11:30:57;4.97;;;1.70;;
56381;SDS011;50261;51.150;4.470;2022-07-29T11:33:27;3.83;;;1.70;;
56381;SDS011;50261;51.150;4.470;2022-07-29T11:38:34;5.97;;;1.73;;
56381;SDS011;50261;51.150;4.470;2022-07-29T11:43:58;4.82;;;1.80;;
56381;SDS011;50261;51.150;4.470;2022-07-29T11:49:07;5.70;;;1.80;;
56381;SDS011;50261;51.150;4.470;2022-07-29T11:51:34;3.20;;;1.42;;
56381;SDS011;50261;51.150;4.470;2022-07-29T11:54:00;6.88;;;2.30;;
56381;SDS011;50261;51.150;4.470;2022-07-29T11:56:26;7.38;;;2.00;;
56381;SDS011;50261;51.150;4.470;2022-07-29T11:59:05;4.03;;;1.73;;
56381;SDS011;50261;51.150;4.470;2022-07-29T12:01:32;4.05;;;2.10;;
56381;SDS011;50261;51.150;4.470;2022-07-29T12:04:02;4.72;;;1.80;;
56381;SDS011;50261;51.150;4.470;2022-07-29T12:06:28;7.68;;;1.77;;
56381;SDS011;50261;51.150;4.470;2022-07-29T12:08:53;5.38;;;2.17;;
56381;SDS011;50261;51.150;4.470;2022-07-29T12:11:19;7.10;;;2.47;;
56381;SDS011;50261;51.150;4.470;2022-07-29T12:13:45;6.95;;;2.25;;
56381;SDS011;50261;51.150;4.470;2022-07-29T12:16:11;3.97;;;2.05;;
56381;SDS011;50261;51.150;4.470;2022-07-29T12:18:36;6.18;;;2.70;;
56381;SDS011;50261;51.150;4.470;2022-07-29T12:21:02;5.78;;;1.92;;
56381;SDS011;50261;51.150;4.470;2022-07-29T12:23:29;8.73;;;2.50;;
56381;SDS011;50261;51.150;4.470;2022-07-29T12:25:54;7.07;;;2.92;;
56381;SDS011;50261;51.150;4.470;2022-07-29T12:28:19;5.20;;;2.50;;
56381;SDS011;50261;51.150;4.470;2022-07-29T12:30:47;5.43;;;2.33;;
56381;SDS011;50261;51.150;4.470;2022-07-29T12:33:17;7.32;;;3.40;;
56381;SDS011;50261;51.150;4.470;2022-07-29T12:35:44;7.53;;;3.45;;
56381;SDS011;50261;51.150;4.470;2022-07-29T12:38:13;4.43;;;3.28;;
56381;SDS011;50261;51.150;4.470;2022-07-29T12:40:39;4.82;;;2.47;;
56381;SDS011;50261;51.150;4.470;2022-07-29T12:43:12;6.20;;;3.67;;
56381;SDS011;50261;51.150;4.470;2022-07-29T12:45:41;8.90;;;2.70;;
56381;SDS011;50261;51.150;4.470;2022-07-29T12:48:07;6.10;;;2.85;;
56381;SDS011;50261;51.150;4.470;2022-07-29T12:50:36;6.63;;;2.75;;
56381;SDS011;50261;51.150;4.470;2022-07-29T12:53:09;5.88;;;2.40;;
56381;SDS011;50261;51.150;4.470;2022-07-29T12:58:05;5.95;;;3.00;;
56381;SDS011;50261;51.150;4.470;2022-07-29T13:00:30;5.18;;;2.78;;
56381;SDS011;50261;51.150;4.470;2022-07-29T13:02:56;8.25;;;3.15;;
56381;SDS011;50261;51.150;4.470;2022-07-29T13:05:22;4.38;;;2.50;;
56381;SDS011;50261;51.150;4.470;2022-07-29T13:07:49;10.43;;;3.55;;
56381;SDS011;50261;51.150;4.470;2022-07-29T13:10:19;6.28;;;2.45;;
56381;SDS011;50261;51.150;4.470;2022-07-29T13:15:30;6.35;;;2.95;;
56381;SDS011;50261;51.150;4.470;2022-07-29T13:17:55;7.85;;;2.63;;
56381;SDS011;50261;51.150;4.470;2022-07-29T13:20:24;9.75;;;3.40;;
56381;SDS011;50261;51.150;4.470;2022-07-29T13:22:50;8.07;;;2.35;;
56381;SDS011;50261;51.150;4.470;2022-07-29T13:25:23;6.82;;;2.22;;
56381;SDS011;50261;51.150;4.470;2022-07-29T13:27:49;4.43;;;2.40;;
56381;SDS011;50261;51.150;4.470;2022-07-29T13:30:14;7.68;;;2.80;;
56381;SDS011;50261;51.150;4.470;2022-07-29T13:32:40;4.45;;;1.95;;
56381;SDS011;50261;51.150;4.470;2022-07-29T13:35:06;8.15;;;2.30;;
56381;SDS011;50261;51.150;4.470;2022-07-29T13:37:33;3.72;;;2.28;;
56381;SDS011;50261;51.150;4.470;2022-07-29T13:40:00;5.15;;;2.22;;
56381;SDS011;50261;51.150;4.470;2022-07-29T13:42:28;5.28;;;2.22;;
56381;SDS011;50261;51.150;4.470;2022-07-29T13:44:53;4.10;;;1.98;;
56381;SDS011;50261;51.150;4.470;2022-07-29T13:47:20;2.88;;;1.80;;
56381;SDS011;50261;51.150;4.470;2022-07-29T13:49:46;5.30;;;1.88;;
56381;SDS011;50261;51.150;4.470;2022-07-29T13:52:11;6.50;;;1.95;;
56381;SDS011;50261;51.150;4.470;2022-07-29T13:54:37;8.55;;;2.10;;
56381;SDS011;50261;51.150;4.470;2022-07-29T13:57:05;5.80;;;2.80;;
56381;SDS011;50261;51.150;4.470;2022-07-29T13:59:31;10.23;;;2.38;;
56381;SDS011;50261;51.150;4.470;2022-07-29T14:01:57;6.55;;;2.42;;
56381;SDS011;50261;51.150;4.470;2022-07-29T14:04:23;3.22;;;1.85;;
56381;SDS011;50261;51.150;4.470;2022-07-29T14:06:49;6.35;;;2.50;;
56381;SDS011;50261;51.150;4.470;2022-07-29T14:09:14;4.40;;;1.70;;
56381;SDS011;50261;51.150;4.470;2022-07-29T14:11:40;4.53;;;2.10;;
56381;SDS011;50261;51.150;4.470;2022-07-29T14:14:06;5.15;;;2.05;;
56381;SDS011;50261;51.150;4.470;2022-07-29T14:16:32;4.65;;;1.63;;
56381;SDS011;50261;51.150;4.470;2022-07-29T14:18:57;4.63;;;2.17;;
56381;SDS011;50261;51.150;4.470;2022-07-29T14:21:23;4.80;;;2.55;;
56381;SDS011;50261;51.150;4.470;2022-07-29T14:23:49;4.97;;;2.20;;
56381;SDS011;50261;51.150;4.470;2022-07-29T14:26:15;5.43;;;2.50;;
56381;SDS011;50261;51.150;4.470;2022-07-29T14:28:40;6.25;;;2.15;;
56381;SDS011;50261;51.150;4.470;2022-07-29T14:31:07;6.93;;;2.13;;
56381;SDS011;50261;51.150;4.470;2022-07-29T14:33:32;4.75;;;1.92;;
56381;SDS011;50261;51.150;4.470;2022-07-29T14:35:58;6.38;;;2.45;;
56381;SDS011;50261;51.150;4.470;2022-07-29T14:38:24;5.53;;;2.42;;
56381;SDS011;50261;51.150;4.470;2022-07-29T14:40:49;6.05;;;2.17;;
56381;SDS011;50261;51.150;4.470;2022-07-29T14:43:15;3.15;;;1.90;;
56381;SDS011;50261;51.150;4.470;2022-07-29T14:45:41;7.00;;;2.10;;
56381;SDS011;50261;51.150;4.470;2022-07-29T14:48:06;7.38;;;2.38;;
56381;SDS011;50261;51.150;4.470;2022-07-29T14:50:32;5.15;;;2.47;;
56381;SDS011;50261;51.150;4.470;2022-07-29T14:52:58;3.92;;;2.22;;
56381;SDS011;50261;51.150;4.470;2022-07-29T14:55:24;6.82;;;2.45;;
56381;SDS011;50261;51.150;4.470;2022-07-29T14:57:50;4.78;;;2.25;;
56381;SDS011;50261;51.150;4.470;2022-07-29T15:00:16;5.20;;;2.30;;
56381;SDS011;50261;51.150;4.470;2022-07-29T15:02:42;5.20;;;2.60;;
56381;SDS011;50261;51.150;4.470;2022-07-29T15:05:07;3.78;;;1.80;;
56381;SDS011;50261;51.150;4.470;2022-07-29T15:07:33;8.38;;;2.88;;
56381;SDS011;50261;51.150;4.470;2022-07-29T15:09:59;4.43;;;2.25;;
56381;SDS011;50261;51.150;4.470;2022-07-29T15:12:24;4.30;;;1.90;;
56381;SDS011;50261;51.150;4.470;2022-07-29T15:14:50;5.82;;;2.40;;
56381;SDS011;50261;51.150;4.470;2022-07-29T15:17:16;5.00;;;2.40;;
56381;SDS011;50261;51.150;4.470;2022-07-29T15:19:42;5.40;;;2.50;;
56381;SDS011;50261;51.150;4.470;2022-07-29T15:22:07;5.15;;;2.38;;
56381;SDS011;50261;51.150;4.470;2022-07-29T15:24:33;4.60;;;2.17;;
56381;SDS011;50261;51.150;4.470;2022-07-29T15:26:59;4.82;;;1.98;;
56381;SDS011;50261;51.150;4.470;2022-07-29T15:29:25;8.13;;;2.63;;
56381;SDS011;50261;51.150;4.470;2022-07-29T15:31:50;4.50;;;1.98;;
56381;SDS011;50261;51.150;4.470;2022-07-29T15:34:16;5.25;;;2.20;;
56381;SDS011;50261;51.150;4.470;2022-07-29T15:36:42;5.45;;;2.03;;
56381;SDS011;50261;51.150;4.470;2022-07-29T15:39:07;5.10;;;2.60;;